Time;durP1;ratioP1;P1;durP2;ratioP2;P2;SDS_P1;SDS_P2;PMS_P1;PMS_P2;Temp;Humidity;BMP_temperature;BMP_pressure;BME280_temperature;BME280_humidity;BME280_pressure;Samples;Min_cycle;Max_cycle;Signal;HPM_P1;HPM_P2
2024/03/12 00:00:43;;;;;;;42.53;19.67;;;;;;;6.84;100.00;101036.63;6081095;19;20047;-74
2024/03/12 00:02:50;;;;;;;44.10;18.98;;;;;;;6.83;100.00;101041.00;6083943;19;20014;-74
2024/03/12 00:04:57;;;;;;;45.33;18.75;;;;;;;6.88;100.00;101047.00;6084358;19;20077;-74
2024/03/12 00:07:03;;;;;;;42.92;18.45;;;;;;;6.88;100.00;101043.53;6085363;19;20006;-74
2024/03/12 00:09:11;;;;;;;53.10;20.40;;;;;;;6.87;100.00;101053.09;6082410;19;20049;-74
2024/03/12 00:11:14;;;;;;;46.15;19.25;;;;;;;6.88;100.00;101054.81;6082094;19;20034;-74
2024/03/12 00:13:19;;;;;;;47.50;18.25;;;;;;;6.85;100.00;101052.28;6084053;19;20002;-75
2024/03/12 00:15:26;;;;;;;36.78;17.85;;;;;;;6.85;100.00;101059.28;6083743;19;20007;-73
2024/03/12 00:17:31;;;;;;;47.72;21.25;;;;;;;6.83;100.00;101061.91;6082720;19;20242;-77
2024/03/12 00:19:34;;;;;;;44.40;19.67;;;;;;;6.84;100.00;101060.16;6088995;19;20471;-77
2024/03/12 00:21:40;;;;;;;45.25;20.38;;;;;;;6.84;100.00;101068.84;6088367;19;20014;-78
2024/03/12 00:23:46;;;;;;;46.88;18.48;;;;;;;6.86;100.00;101063.59;6089177;19;20010;-77
2024/03/12 00:25:53;;;;;;;52.28;18.10;;;;;;;6.79;100.00;101055.91;6084504;19;20006;-77
2024/03/12 00:27:56;;;;;;;39.80;18.90;;;;;;;6.78;100.00;101071.59;6087022;19;20512;-74
2024/03/12 00:30:02;;;;;;;41.72;18.30;;;;;;;6.74;100.00;101068.19;6089903;19;20008;-77
2024/03/12 00:32:07;;;;;;;47.10;18.60;;;;;;;6.73;100.00;101076.03;6090327;19;20045;-77
2024/03/12 00:34:12;;;;;;;43.72;18.77;;;;;;;6.71;100.00;101073.44;6087206;19;20006;-74
2024/03/12 00:36:17;;;;;;;48.03;21.23;;;;;;;6.67;100.00;101065.72;6091424;19;20006;-77
2024/03/12 00:38:22;;;;;;;43.00;17.92;;;;;;;6.71;100.00;101081.28;6092598;19;20102;-77
2024/03/12 00:40:33;;;;;;;46.35;19.60;;;;;;;6.71;100.00;101078.66;6085037;19;20074;-74
2024/03/12 00:42:41;;;;;;;50.22;21.75;;;;;;;6.75;100.00;101084.72;6085643;19;20011;-74
2024/03/12 00:44:48;;;;;;;48.58;20.20;;;;;;;6.71;100.00;101078.66;6085592;19;20382;-75
2024/03/12 00:46:54;;;;;;;43.33;18.05;;;;;;;6.73;100.00;101082.13;6087057;19;20022;-74
2024/03/12 00:48:59;;;;;;;47.90;18.13;;;;;;;6.71;100.00;101086.50;6087612;19;20564;-74
2024/03/12 00:51:04;;;;;;;47.65;19.92;;;;;;;6.75;100.00;101089.94;6088111;19;20042;-78
2024/03/12 00:53:11;;;;;;;52.17;20.15;;;;;;;6.75;100.00;101092.56;6084569;19;20017;-79
2024/03/12 00:55:17;;;;;;;53.30;19.70;;;;;;;6.74;100.00;101099.53;6089735;19;20643;-78
2024/03/12 00:57:27;;;;;;;44.72;18.75;;;;;;;6.73;100.00;101099.53;6088040;19;20452;-78
2024/03/12 00:59:35;;;;;;;50.90;20.60;;;;;;;6.70;100.00;101105.69;6088152;19;20442;-75
2024/03/12 01:01:41;;;;;;;44.25;21.02;;;;;;;6.72;100.00;101106.53;6084332;19;20535;-74
2024/03/12 01:03:46;;;;;;;42.10;17.65;;;;;;;6.72;100.00;101106.53;6086828;19;20007;-74
2024/03/12 01:05:53;;;;;;;46.08;19.33;;;;;;;6.78;100.00;101108.16;6086579;19;20002;-74
2024/03/12 01:08:03;;;;;;;47.63;18.55;;;;;;;6.75;100.00;101111.69;6084231;19;20093;-74
2024/03/12 01:10:09;;;;;;;46.33;17.00;;;;;;;6.80;100.00;101109.00;6086891;19;20014;-74
2024/03/12 01:12:13;;;;;;;53.63;17.95;;;;;;;6.75;100.00;101113.44;6086004;19;20020;-75
2024/03/12 01:14:18;;;;;;;37.90;15.98;;;;;;;6.72;100.00;101113.50;6086497;19;20395;-74
2024/03/12 01:16:26;;;;;;;39.30;18.48;;;;;;;6.77;100.00;101115.13;6086914;19;20032;-73
2024/03/12 01:18:34;;;;;;;51.35;20.65;;;;;;;6.73;100.00;101116.06;6080619;19;20007;-73
2024/03/12 01:20:36;;;;;;;39.25;17.88;;;;;;;6.72;100.00;101114.38;6085706;19;20535;-74
2024/03/12 01:22:42;;;;;;;44.30;17.88;;;;;;;6.75;100.00;101122.13;6087056;19;20436;-74
2024/03/12 01:24:47;;;;;;;43.45;20.23;;;;;;;6.77;100.00;101116.88;6088158;19;20046;-74
2024/03/12 01:26:52;;;;;;;37.45;17.08;;;;;;;6.77;100.00;101122.97;6088178;19;20019;-73
2024/03/12 01:28:58;;;;;;;39.63;16.80;;;;;;;6.76;100.00;101120.38;6088252;19;20397;-74
2024/03/12 01:31:03;;;;;;;40.00;16.88;;;;;;;6.76;100.00;101117.75;6087689;19;20068;-74
2024/03/12 01:33:12;;;;;;;34.58;17.83;;;;;;;6.75;100.00;101123.88;6086024;19;20022;-74
2024/03/12 01:35:14;;;;;;;37.30;15.80;;;;;;;6.79;100.00;101125.53;6088296;19;20014;-77
2024/03/12 01:37:24;;;;;;;36.90;14.98;;;;;;;6.77;100.00;101143.00;6088727;19;20010;-79
2024/03/12 01:39:29;;;;;;;32.58;15.82;;;;;;;6.78;100.00;101139.50;6084871;19;20011;-75
2024/03/12 01:41:41;;;;;;;44.72;17.05;;;;;;;6.78;100.00;101132.50;6085935;19;20010;-74
2024/03/12 01:44:02;;;;;;;34.42;16.42;;;;;;;6.73;100.00;101136.13;6085467;19;20006;-75
2024/03/12 01:46:08;;;;;;;31.60;14.18;;;;;;;6.72;100.00;101137.88;6086326;19;20005;-76
2024/03/12 01:48:15;;;;;;;37.58;16.48;;;;;;;6.70;100.00;101137.03;6087219;19;20017;-73
2024/03/12 01:50:28;;;;;;;35.63;16.15;;;;;;;6.68;100.00;101145.78;6087963;19;20154;-74
2024/03/12 01:52:33;;;;;;;34.50;15.50;;;;;;;6.67;100.00;101142.31;6087121;19;20009;-75
2024/03/12 01:54:39;;;;;;;43.70;19.25;;;;;;;6.64;100.00;101146.75;6088357;19;20527;-75
2024/03/12 01:56:44;;;;;;;36.35;17.25;;;;;;;6.65;100.00;101156.28;6086204;19;20431;-76
2024/03/12 01:58:49;;;;;;;33.55;16.35;;;;;;;6.60;100.00;101154.63;6084485;19;20014;-76
2024/03/12 02:00:54;;;;;;;35.63;16.35;;;;;;;6.67;100.00;101158.00;6087175;19;20003;-75
2024/03/12 02:02:59;;;;;;;32.90;16.65;;;;;;;6.64;100.00;101159.81;6086720;19;20219;-77
2024/03/12 02:05:10;;;;;;;32.45;15.30;;;;;;;6.58;100.00;101158.16;6087514;19;20373;-76
2024/03/12 02:07:15;;;;;;;35.97;15.02;;;;;;;6.57;100.00;101157.28;6085883;19;20392;-76
2024/03/12 02:09:21;;;;;;;38.58;16.55;;;;;;;6.51;100.00;101165.25;6087819;19;20016;-78
2024/03/12 02:11:27;;;;;;;35.88;16.35;;;;;;;6.55;100.00;101160.81;6088312;19;20017;-77
2024/03/12 02:13:32;;;;;;;31.25;15.80;;;;;;;6.47;100.00;101158.34;6087531;19;20007;-77
2024/03/12 02:15:38;;;;;;;38.58;15.98;;;;;;;6.46;100.00;101168.84;6084716;19;20400;-77
2024/03/12 02:17:43;;;;;;;38.67;15.63;;;;;;;6.48;100.00;101169.69;6087374;19;20006;-76
2024/03/12 02:19:46;;;;;;;37.92;16.92;;;;;;;6.48;100.00;101170.53;6088025;19;20034;-77
2024/03/12 02:21:53;;;;;;;40.05;17.95;;;;;;;6.49;100.00;101164.41;6085799;19;20019;-78
2024/03/12 02:24:01;;;;;;;43.80;15.50;;;;;;;6.48;100.00;101167.06;6087695;19;20006;-77
2024/03/12 02:26:04;;;;;;;41.47;16.02;;;;;;;6.41;100.00;101173.28;6088675;19;20410;-77
2024/03/12 02:28:09;;;;;;;;;;;;;;;6.47;100.00;101174.00;6088628;19;20023;-77
2024/03/12 02:30:16;;;;;;;47.17;16.05;;;;;;;6.44;100.00;101168.84;6086808;19;20171;-78
2024/03/12 02:32:24;;;;;;;34.65;15.40;;;;;;;6.51;100.00;101177.44;6084826;19;20007;-77
2024/03/12 02:34:31;;;;;;;36.75;17.23;;;;;;;6.46;100.00;101174.06;6085256;19;20010;-77
2024/03/12 02:36:36;;;;;;;34.83;15.57;;;;;;;6.46;100.00;101172.31;6087714;19;20037;-76
2024/03/12 02:38:42;;;;;;;41.25;15.85;;;;;;;6.43;100.00;101184.56;6087381;19;20015;-77
2024/03/12 02:40:50;;;;;;;38.20;16.17;;;;;;;6.41;100.00;101184.56;6078169;19;20127;-74
2024/03/12 02:42:55;;;;;;;44.53;16.00;;;;;;;6.42;100.00;101183.69;6085515;19;20011;-75
2024/03/12 02:45:00;;;;;;;36.97;17.42;;;;;;;6.45;100.00;101187.97;6085907;19;20776;-75
2024/03/12 02:47:05;;;;;;;38.42;17.85;;;;;;;6.45;100.00;101180.16;6087057;19;20074;-75
2024/03/12 02:49:13;;;;;;;35.40;14.90;;;;;;;6.41;100.00;101181.97;6085177;19;20014;-76
2024/03/12 02:51:23;;;;;;;26.23;13.88;;;;;;;6.48;100.00;101180.13;6088879;19;20418;-75
2024/03/12 02:53:29;;;;;;;26.58;14.18;;;;;;;6.47;100.00;101183.59;6083436;19;20499;-77
2024/03/12 02:55:34;;;;;;;33.40;13.20;;;;;;;6.43;100.00;101192.41;6086179;19;20376;-76
2024/03/12 02:57:42;;;;;;;44.30;18.13;;;;;;;6.41;100.00;101186.34;6086546;19;20031;-78
2024/03/12 02:59:47;;;;;;;37.15;14.85;;;;;;;6.43;100.00;101179.34;6087060;19;20018;-75
2024/03/12 03:01:52;;;;;;;34.72;15.73;;;;;;;6.44;100.00;101179.31;6087889;19;20230;-74
2024/03/12 03:03:59;;;;;;;38.35;16.83;;;;;;;6.40;100.00;101181.97;6086167;19;20002;-78
2024/03/12 03:06:06;;;;;;;37.75;14.93;;;;;;;6.43;100.00;101176.72;6085506;19;20007;-77
2024/03/12 03:08:11;;;;;;;43.35;16.75;;;;;;;6.39;100.00;101181.13;6087197;19;20010;-78
2024/03/12 03:10:16;;;;;;;45.08;17.27;;;;;;;6.36;100.00;101181.19;6087150;19;20070;-78
2024/03/12 03:12:21;;;;;;;38.63;14.88;;;;;;;6.41;100.00;101174.13;6084314;19;20003;-78
2024/03/12 03:14:29;;;;;;;43.45;15.20;;;;;;;6.47;100.00;101165.34;6088498;19;20007;-80
2024/03/12 03:16:35;;;;;;;47.67;15.90;;;;;;;6.48;100.00;101172.28;6088425;19;20039;-77
2024/03/12 03:18:40;;;;;;;38.80;15.88;;;;;;;6.44;100.00;101168.00;6086666;19;20027;-75
2024/03/12 03:20:45;;;;;;;36.75;15.43;;;;;;;6.38;100.00;101164.63;6084945;19;20014;-77
2024/03/12 03:22:50;;;;;;;36.60;14.50;;;;;;;6.45;100.00;101167.09;6078951;19;20011;-75
2024/03/12 03:24:59;;;;;;;32.40;13.98;;;;;;;6.41;100.00;101173.28;6084495;19;20018;-75
2024/03/12 03:27:04;;;;;;;43.65;15.77;;;;;;;6.44;100.00;101168.84;6081641;19;20279;-75
2024/03/12 03:29:10;;;;;;;38.35;15.20;;;;;;;6.43;100.00;101182.81;6080070;19;20028;-73
2024/03/12 03:31:18;;;;;;;37.45;16.55;;;;;;;6.42;100.00;101170.63;6082829;19;20006;-76
2024/03/12 03:33:24;;;;;;;36.08;13.60;;;;;;;6.40;100.00;101177.66;6084328;19;20381;-78
2024/03/12 03:35:29;;;;;;;35.25;13.68;;;;;;;6.40;100.00;101172.44;6086261;19;20551;-79
2024/03/12 03:37:35;;;;;;;34.75;14.75;;;;;;;6.43;100.00;101182.81;6086086;19;20019;-78
2024/03/12 03:39:40;;;;;;;32.85;15.15;;;;;;;6.41;100.00;101186.34;6084645;19;20067;-78
2024/03/12 03:41:45;;;;;;;35.53;12.98;;;;;;;6.44;100.00;101183.66;6084857;19;20013;-76
2024/03/12 03:43:50;;;;;;;34.92;13.68;;;;;;;6.44;100.00;101186.28;6084624;19;20435;-78
2024/03/12 03:45:56;;;;;;;33.60;14.05;;;;;;;6.39;100.00;101186.34;6084601;19;20006;-78
2024/03/12 03:48:04;;;;;;;31.80;15.60;;;;;;;6.38;100.00;101190.72;6082514;19;20393;-74
2024/03/12 03:50:10;;;;;;;42.95;14.93;;;;;;;6.47;100.00;101194.03;6082517;19;20396;-78
2024/03/12 03:52:15;;;;;;;32.08;14.32;;;;;;;6.44;100.00;101194.09;6086730;19;20011;-78
2024/03/12 03:54:20;;;;;;;36.33;14.45;;;;;;;6.41;100.00;101195.03;6089447;19;20010;-74
2024/03/12 03:56:27;;;;;;;29.63;15.52;;;;;;;6.48;100.00;101196.66;6087089;19;20006;-75
2024/03/12 03:58:32;;;;;;;33.35;14.35;;;;;;;6.41;100.00;101200.25;6087220;19;20015;-74
2024/03/12 04:00:40;;;;;;;32.60;15.20;;;;;;;6.43;100.00;101208.91;6087388;19;20002;-74
2024/03/12 04:02:44;;;;;;;29.50;14.25;;;;;;;6.45;100.00;101201.94;6087107;19;20376;-74
2024/03/12 04:04:53;;;;;;;32.55;14.05;;;;;;;6.39;100.00;101207.22;6086656;19;20098;-74
2024/03/12 04:06:58;;;;;;;40.53;15.65;;;;;;;6.45;100.00;101206.25;6090191;19;20039;-73
2024/03/12 04:09:04;;;;;;;28.85;12.48;;;;;;;6.47;100.00;101213.19;6086839;19;20007;-74
2024/03/12 04:11:07;;;;;;;36.25;13.65;;;;;;;6.44;100.00;101218.47;6088796;19;20021;-74
2024/03/12 04:13:14;;;;;;;44.58;14.85;;;;;;;6.43;100.00;101219.34;6089057;19;20446;-75
2024/03/12 04:15:20;;;;;;;25.45;12.57;;;;;;;6.46;100.00;101218.44;6087416;19;20438;-74
2024/03/12 04:17:23;;;;;;;34.05;12.95;;;;;;;6.43;100.00;101226.34;6086674;19;20517;-74
2024/03/12 04:19:31;;;;;;;32.83;12.77;;;;;;;6.37;100.00;101227.28;6089403;19;20526;-74
2024/03/12 04:21:37;;;;;;;28.20;11.82;;;;;;;6.36;100.00;101222.94;6088782;19;20530;-74
2024/03/12 04:23:43;;;;;;;28.95;11.82;;;;;;;6.40;100.00;101236.81;6087674;19;20081;-74
2024/03/12 04:25:45;;;;;;;30.55;13.32;;;;;;;6.35;100.00;101234.28;6089542;19;20003;-78
2024/03/12 04:27:53;;;;;;;41.33;13.77;;;;;;;6.40;100.00;101235.06;6091011;19;20002;-74
2024/03/12 04:29:56;;;;;;;30.05;13.23;;;;;;;6.37;100.00;101230.78;6089109;19;20014;-75
2024/03/12 04:32:02;;;;;;;35.53;12.27;;;;;;;6.37;100.00;101237.72;6088322;19;20018;-74
2024/03/12 04:34:08;;;;;;;35.53;12.82;;;;;;;6.44;100.00;101236.72;6088861;19;20557;-74
2024/03/12 04:36:14;;;;;;;27.90;12.73;;;;;;;6.45;100.00;101246.31;6086656;19;19999;-74
2024/03/12 04:38:21;;;;;;;27.52;10.82;;;;;;;6.41;100.00;101242.00;6087847;19;20006;-74
2024/03/12 04:40:26;;;;;;;30.13;12.43;;;;;;;6.40;100.00;101244.63;6087614;19;20014;-74
2024/03/12 04:42:31;;;;;;;32.38;12.38;;;;;;;6.40;100.00;101250.75;6088733;19;20850;-74
2024/03/12 04:44:37;;;;;;;23.95;12.55;;;;;;;6.39;100.00;101249.00;6086011;19;20031;-74
2024/03/12 04:46:45;;;;;;;28.50;12.57;;;;;;;6.40;100.00;101261.19;6087645;19;20565;-74
2024/03/12 04:48:50;;;;;;;30.63;11.73;;;;;;;6.38;100.00;101261.19;6088732;19;20324;-74
2024/03/12 04:50:56;;;;;;;25.92;11.45;;;;;;;6.43;100.00;101263.72;6085368;19;20755;-75
2024/03/12 04:53:01;;;;;;;35.17;13.85;;;;;;;6.44;100.00;101264.59;6084718;19;20365;-74
2024/03/12 04:55:07;;;;;;;39.08;11.40;;;;;;;6.42;100.00;101269.81;6082021;19;20011;-74
2024/03/12 04:57:12;;;;;;;32.33;13.18;;;;;;;6.48;100.00;101264.53;6086642;19;20077;-74
2024/03/12 04:59:17;;;;;;;26.17;12.05;;;;;;;6.48;100.00;101274.09;6086312;19;20106;-74
2024/03/12 05:01:25;;;;;;;27.23;13.55;;;;;;;6.40;100.00;101276.84;6084798;19;20010;-74
2024/03/12 05:03:30;;;;;;;29.13;13.27;;;;;;;6.41;100.00;101277.69;6081981;19;20074;-74
2024/03/12 05:05:33;;;;;;;39.45;14.25;;;;;;;6.41;100.00;101283.78;6086504;19;20006;-77
2024/03/12 05:07:38;;;;;;;35.50;11.88;;;;;;;6.41;100.00;101286.38;6090925;19;20039;-78
2024/03/12 05:09:44;;;;;;;28.40;13.63;;;;;;;6.42;100.00;101285.47;6087603;19;20041;-78
2024/03/12 05:11:51;;;;;;;28.17;13.13;;;;;;;6.42;100.00;101290.72;6089727;19;20365;-74
2024/03/12 05:13:54;;;;;;;26.35;13.60;;;;;;;6.41;100.00;101289.00;6088980;19;20038;-74
2024/03/12 05:15:59;;;;;;;28.30;11.68;;;;;;;6.41;100.00;101294.22;6086556;19;20680;-74
2024/03/12 05:18:04;;;;;;;32.53;13.52;;;;;;;6.40;100.00;101291.63;6088761;19;20011;-74
2024/03/12 05:20:14;;;;;;;24.98;12.55;;;;;;;6.45;100.00;101293.28;6087195;19;20347;-73
2024/03/12 05:22:19;;;;;;;25.27;10.57;;;;;;;6.43;100.00;101300.28;6085763;19;20027;-74
2024/03/12 05:24:24;;;;;;;29.88;12.30;;;;;;;6.42;100.00;101302.91;6086716;19;20003;-77
2024/03/12 05:26:31;;;;;;;25.52;10.63;;;;;;;6.47;100.00;101304.56;6086535;19;20013;-76
2024/03/12 05:28:39;;;;;;;27.20;9.52;;;;;;;6.45;100.00;101313.28;6086026;19;20007;-76
2024/03/12 05:30:42;;;;;;;28.45;12.57;;;;;;;6.45;100.00;101310.69;6089075;19;20020;-77
2024/03/12 05:32:48;;;;;;;20.85;10.73;;;;;;;6.43;100.00;101308.13;6088128;19;20494;-74
2024/03/12 05:34:58;;;;;;;26.08;12.30;;;;;;;6.43;100.00;101313.34;6086202;19;20565;-73
2024/03/12 05:37:05;;;;;;;25.85;10.48;;;;;;;6.42;100.00;101318.56;6086417;19;20010;-77
2024/03/12 05:39:24;;;;;;;23.38;11.65;;;;;;;6.44;100.00;101317.66;6085225;19;20787;-75
2024/03/12 05:41:40;;;;;;;17.77;9.30;;;;;;;6.44;100.00;101324.63;6088211;19;20783;-73
2024/03/12 05:48:23;;;;;;;17.45;9.40;;;;;;;6.46;100.00;101325.47;6088911;19;20353;-77
2024/03/12 05:50:29;;;;;;;22.05;9.90;;;;;;;6.55;100.00;101331.41;6087024;19;20025;-76
2024/03/12 05:52:34;;;;;;;22.90;10.23;;;;;;;6.47;100.00;101330.66;6085335;19;20495;-76
2024/03/12 05:54:40;;;;;;;25.50;10.65;;;;;;;6.47;100.00;101333.28;6087363;19;20003;-76
2024/03/12 05:56:45;;;;;;;23.95;10.80;;;;;;;6.42;100.00;101337.69;6084909;19;20095;-76
2024/03/12 05:58:52;;;;;;;24.08;11.15;;;;;;;6.45;100.00;101332.47;6085664;19;20458;-73
2024/03/12 06:00:55;;;;;;;22.10;10.63;;;;;;;6.47;100.00;101341.09;6084794;19;20007;-74
2024/03/12 06:03:00;;;;;;;24.17;10.85;;;;;;;6.45;100.00;101336.78;6086564;19;20081;-74
2024/03/12 06:05:05;;;;;;;22.85;9.88;;;;;;;6.50;100.00;101346.31;6084891;19;20010;-76
2024/03/12 06:07:12;;;;;;;23.60;9.55;;;;;;;6.55;100.00;101347.06;6085620;19;20006;-73
2024/03/12 06:09:22;;;;;;;25.20;9.80;;;;;;;6.50;100.00;101351.53;6085297;19;20014;-73
2024/03/12 06:11:27;;;;;;;28.58;9.95;;;;;;;6.57;100.00;101345.28;6082458;19;20010;-73
2024/03/12 06:13:33;;;;;;;24.95;11.30;;;;;;;6.53;100.00;101355.81;6085351;19;20336;-74
2024/03/12 06:15:41;;;;;;;19.45;9.43;;;;;;;6.51;100.00;101357.59;6083230;19;20010;-73
2024/03/12 06:17:44;;;;;;;23.45;9.35;;;;;;;6.50;100.00;101359.34;6085461;19;20263;-74
2024/03/12 06:19:49;;;;;;;26.30;11.93;;;;;;;6.48;100.00;101355.91;6086604;19;20021;-77
2024/03/12 06:21:54;;;;;;;25.63;9.35;;;;;;;6.53;100.00;101369.75;6085262;19;20467;-74
2024/03/12 06:24:02;;;;;;;20.88;9.65;;;;;;;6.56;100.00;101372.31;6086031;19;20058;-74
2024/03/12 06:26:08;;;;;;;22.23;9.80;;;;;;;6.54;100.00;101366.25;6083060;19;20450;-73
2024/03/12 06:28:14;;;;;;;22.90;9.70;;;;;;;6.50;100.00;101369.81;6084604;19;20462;-74
2024/03/12 06:30:20;;;;;;;21.50;9.55;;;;;;;6.40;100.00;101365.59;6084976;19;20510;-75
2024/03/12 06:32:31;;;;;;;27.70;11.48;;;;;;;6.40;100.00;101369.94;6084077;19;20474;-73
2024/03/12 06:34:36;;;;;;;27.27;11.18;;;;;;;6.37;100.00;101366.50;6084769;19;20014;-74
2024/03/12 06:36:41;;;;;;;24.70;11.23;;;;;;;6.40;100.00;101372.53;6087127;19;20510;-74
2024/03/12 06:38:47;;;;;;;29.67;12.57;;;;;;;6.36;100.00;101369.13;6084304;19;20407;-74
2024/03/12 06:40:52;;;;;;;21.42;10.48;;;;;;;6.31;100.00;101371.78;6083680;19;20027;-75
2024/03/12 06:42:59;;;;;;;25.02;12.07;;;;;;;6.34;100.00;101376.09;6082122;19;20339;-73
2024/03/12 06:45:05;;;;;;;25.75;11.05;;;;;;;6.36;100.00;101380.44;6084177;19;20349;-73
2024/03/12 06:47:12;;;;;;;25.88;11.82;;;;;;;6.38;100.00;101380.41;6083613;19;20013;-73
2024/03/12 06:49:20;;;;;;;26.95;10.05;;;;;;;6.40;100.00;101386.47;6083493;19;20010;-75
2024/03/12 06:51:26;;;;;;;19.88;10.55;;;;;;;6.43;100.00;101381.22;6086854;19;20038;-80
2024/03/12 06:53:31;;;;;;;26.10;11.13;;;;;;;6.41;100.00;101382.97;6084849;19;20041;-79
2024/03/12 06:55:38;;;;;;;25.40;11.13;;;;;;;6.41;100.00;101388.19;6083943;19;20475;-78
2024/03/12 06:57:47;;;;;;;29.20;11.07;;;;;;;6.44;100.00;101387.28;6087069;19;20025;-79
2024/03/12 06:59:56;;;;;;;24.08;11.93;;;;;;;6.49;100.00;101386.34;6088209;19;20499;-78
2024/03/12 07:02:01;;;;;;;30.48;12.85;;;;;;;6.50;100.00;101389.81;6088126;19;20664;-79
2024/03/12 07:04:07;;;;;;;24.70;11.27;;;;;;;6.49;100.00;101386.34;6087125;19;20011;-78
2024/03/12 07:06:15;;;;;;;28.48;12.02;;;;;;;6.55;100.00;101387.97;6085825;19;20329;-75
2024/03/12 07:08:25;;;;;;;28.00;10.40;;;;;;;6.57;100.00;101386.22;6085535;19;20009;-75
2024/03/12 07:10:30;;;;;;;27.30;11.00;;;;;;;6.54;100.00;101389.75;6087299;19;20021;-74
2024/03/12 07:12:35;;;;;;;25.33;11.27;;;;;;;6.53;100.00;101401.09;6086971;19;20018;-79
2024/03/12 07:14:45;;;;;;;32.88;13.02;;;;;;;6.50;100.00;101398.53;6088098;19;20021;-76
2024/03/12 07:16:50;;;;;;;31.02;12.40;;;;;;;6.57;100.00;101400.13;6086072;19;20481;-74
2024/03/12 07:18:59;;;;;;;23.67;10.88;;;;;;;6.57;100.00;101397.53;6087039;19;20015;-73
2024/03/12 07:21:05;;;;;;;20.73;10.63;;;;;;;6.58;100.00;101399.25;6086339;19;20064;-75
2024/03/12 07:23:13;;;;;;;25.05;11.98;;;;;;;6.59;100.00;101402.72;6083817;19;20014;-73
2024/03/12 07:25:21;;;;;;;19.15;10.52;;;;;;;6.60;100.00;101402.69;6083929;19;20030;-73
2024/03/12 07:27:29;;;;;;;26.35;11.52;;;;;;;6.62;100.00;101401.81;6085160;19;21046;-75
2024/03/12 07:29:35;;;;;;;26.27;12.27;;;;;;;6.63;100.00;101401.78;6086352;19;20024;-75
2024/03/12 07:31:40;;;;;;;27.65;11.45;;;;;;;6.68;100.00;101404.34;6085855;19;20494;-79
2024/03/12 07:33:45;;;;;;;21.55;9.70;;;;;;;6.69;100.00;101409.53;6088149;19;20011;-77
2024/03/12 07:35:50;;;;;;;24.40;11.13;;;;;;;6.70;100.00;101403.41;6086960;19;20018;-79
2024/03/12 07:37:55;;;;;;;29.35;12.25;;;;;;;6.72;100.00;101403.41;6086371;19;20007;-79
2024/03/12 07:40:05;;;;;;;26.17;11.77;;;;;;;6.74;100.00;101404.22;6086716;19;20558;-79
2024/03/12 07:42:18;;;;;;;26.23;11.60;;;;;;;6.66;100.00;101409.59;6084884;19;20102;-78
2024/03/12 07:44:24;;;;;;;21.65;10.90;;;;;;;6.72;100.00;101412.09;6086196;19;20018;-78
2024/03/12 07:46:29;;;;;;;27.42;12.07;;;;;;;6.72;100.00;101408.63;6083853;19;20019;-78
2024/03/12 07:48:33;;;;;;;26.33;12.00;;;;;;;6.76;100.00;101412.91;6086009;19;20025;-77
2024/03/12 07:50:39;;;;;;;26.60;11.75;;;;;;;6.87;100.00;101415.34;6082462;19;20062;-73
2024/03/12 07:52:45;;;;;;;26.35;11.52;;;;;;;6.93;100.00;101415.28;6082802;19;20006;-74
2024/03/12 07:54:50;;;;;;;28.73;11.95;;;;;;;6.96;100.00;101423.91;6083774;19;20015;-75
2024/03/12 07:56:59;;;;;;;26.50;12.00;;;;;;;7.03;100.00;101425.53;6082076;19;20017;-76
2024/03/12 07:59:04;;;;;;;25.65;11.82;;;;;;;7.09;100.00;101428.94;6084520;19;20032;-78
2024/03/12 08:01:09;;;;;;;29.60;12.70;;;;;;;7.13;100.00;101431.47;6081096;19;20006;-75
2024/03/12 08:03:14;;;;;;;23.80;12.18;;;;;;;7.13;100.00;101434.06;6085442;19;20022;-75
2024/03/12 08:05:17;;;;;;;22.85;10.63;;;;;;;7.20;100.00;101433.09;6083420;19;19999;-75
2024/03/12 08:07:23;;;;;;;30.35;12.55;;;;;;;7.16;100.00;101426.22;6083899;19;20011;-75
2024/03/12 08:09:28;;;;;;;24.83;11.15;;;;;;;7.28;100.00;101432.97;6083285;19;20022;-74
2024/03/12 08:11:33;;;;;;;27.20;11.15;;;;;;;7.37;100.00;101434.53;6082309;19;20010;-75
2024/03/12 08:13:41;;;;;;;26.48;12.13;;;;;;;7.41;100.00;101444.06;6080276;19;20010;-76
2024/03/12 08:15:46;;;;;;;23.45;10.32;;;;;;;7.44;100.00;101442.25;6083591;19;20024;-77
2024/03/12 08:17:52;;;;;;;25.38;11.90;;;;;;;7.42;100.00;101441.41;6082289;19;20042;-77
2024/03/12 08:20:05;;;;;;;31.00;11.88;;;;;;;7.38;100.00;101442.38;6081375;19;20007;-74
2024/03/12 08:22:11;;;;;;;25.38;11.38;;;;;;;7.50;100.00;101435.19;6083207;19;20769;-75
2024/03/12 08:24:16;;;;;;;30.50;12.82;;;;;;;7.60;100.00;101435.00;6081390;19;20065;-73
2024/03/12 08:26:21;;;;;;;31.75;11.52;;;;;;;7.59;100.00;101445.50;6082633;19;20010;-75
2024/03/12 08:28:26;;;;;;;18.33;10.68;;;;;;;7.55;100.00;101441.22;6083674;19;20106;-75
2024/03/12 08:30:34;;;;;;;30.30;12.48;;;;;;;7.54;100.00;101448.19;6081445;19;20015;-75
2024/03/12 08:32:41;;;;;;;22.55;10.40;;;;;;;7.59;100.00;101441.13;6083118;19;20719;-74
2024/03/12 08:34:47;;;;;;;27.02;11.20;;;;;;;7.62;100.00;101442.81;6083276;19;20951;-74
2024/03/12 08:36:52;;;;;;;27.42;11.57;;;;;;;7.56;100.00;101433.34;6082364;19;20377;-75
2024/03/12 08:38:57;;;;;;;22.83;11.65;;;;;;;7.67;100.00;101436.63;6087070;19;20019;-75
2024/03/12 08:41:02;;;;;;;22.77;11.02;;;;;;;7.61;100.00;101434.13;6087950;19;20760;-75
2024/03/12 08:43:04;;;;;;;25.02;10.02;;;;;;;7.55;100.00;101438.59;6087758;19;20039;-75
2024/03/12 08:45:14;;;;;;;18.77;10.48;;;;;;;7.62;100.00;101440.22;6086238;19;20066;-75
2024/03/12 08:47:23;;;;;;;25.50;10.50;;;;;;;7.56;100.00;101437.72;6085694;19;20007;-74
2024/03/12 08:49:29;;;;;;;22.23;9.25;;;;;;;7.57;100.00;101440.28;6086616;19;20010;-74
2024/03/12 08:51:36;;;;;;;22.77;11.18;;;;;;;7.65;100.00;101445.38;6086141;19;20027;-75
2024/03/12 08:53:41;;;;;;;22.52;10.55;;;;;;;7.74;100.00;101450.47;6081714;19;20074;-75
2024/03/12 08:55:46;;;;;;;26.08;11.23;;;;;;;7.72;100.00;101443.53;6087230;19;20461;-75
2024/03/12 08:57:52;;;;;;;24.80;11.18;;;;;;;7.84;100.00;101444.13;6088651;19;20011;-73
2024/03/12 08:59:58;;;;;;;24.67;11.15;;;;;;;7.99;100.00;101449.97;6088468;19;20471;-74
2024/03/12 09:02:03;;;;;;;22.08;11.05;;;;;;;8.08;100.00;101444.53;6087200;19;20706;-73
2024/03/12 09:04:13;;;;;;;23.65;10.80;;;;;;;8.10;100.00;101448.00;6088937;19;20010;-72
2024/03/12 09:06:19;;;;;;;24.63;11.75;;;;;;;8.15;100.00;101448.75;6090427;19;20541;-72
2024/03/12 09:08:25;;;;;;;20.67;10.52;;;;;;;8.08;100.00;101447.16;6088712;19;20753;-73
2024/03/12 09:10:30;;;;;;;24.83;12.73;;;;;;;8.24;100.00;101455.53;6090045;19;20168;-72
2024/03/12 09:12:36;;;;;;;29.02;12.15;;;;;;;8.18;100.00;101451.31;6088998;19;20346;-71
2024/03/12 09:14:41;;;;;;;30.67;12.05;;;;;;;8.29;100.00;101451.06;6090050;19;20032;-72
2024/03/12 09:16:46;;;;;;;32.00;13.30;;;;;;;8.33;100.00;101451.00;6088820;19;20025;-72
2024/03/12 09:18:53;;;;;;;27.08;13.55;;;;;;;8.54;100.00;101454.94;6089462;19;20060;-72
2024/03/12 09:21:01;;;;;;;24.38;12.07;;;;;;;8.66;100.00;101453.81;6086889;19;20474;-74
2024/03/12 09:23:06;;;;;;;28.45;11.13;;;;;;;8.81;100.00;101451.72;6089180;19;20007;-75
2024/03/12 09:25:12;;;;;;;30.77;14.75;;;;;;;8.65;100.00;101453.84;6090572;19;20017;-75
2024/03/12 09:27:20;;;;;;;25.50;11.30;;;;;;;8.71;100.00;101446.69;6087962;19;20019;-73
2024/03/12 09:29:26;;;;;;;32.10;13.35;;;;;;;8.47;100.00;101453.34;6088494;19;20034;-73
2024/03/12 09:31:31;;;;;;;28.75;13.07;;;;;;;8.45;100.00;101456.88;6087944;19;20078;-72
2024/03/12 09:33:36;;;;;;;30.15;13.05;;;;;;;8.35;100.00;101453.59;6090002;19;20018;-73
2024/03/12 09:35:41;;;;;;;31.05;12.73;;;;;;;8.37;100.00;101462.25;6088420;19;20042;-72
2024/03/12 09:37:49;;;;;;;30.73;13.32;;;;;;;8.49;100.00;101462.03;6089529;19;20464;-72